Terminal Aerodrome Forecast
Issued by NWS

Home | Current Version | Previous Version | Text Only | Print | Product List | Glossary On
Versions: 1 2 3 4 5 6 7 8 9 10 11 12 13 14 15
000
FTUS43 KGRB 241140
TAFMTW
TAF
KMTW 241140Z 2412/2512 18009KT P6SM SCT008 OVC025
      TEMPO 2412/2413 BKN008
     FM241300 20011KT P6SM SCT008 OVC025
      TEMPO 2413/2416 3SM TSRA BKN012CB
     FM241600 24010G20KT P6SM BKN035
     FM241900 24010G20KT P6SM SCT050
      TEMPO 2419/2422 2SM TSRA BKN025CB
     FM242200 26012G20KT P6SM SCT100
     FM250200 28008KT P6SM FEW250=

USA.gov is the U.S. government's official web portal to all federal, state and local government web resources and services.